createdAt,value
2022-10-23T00:01:41.428Z,100050.19
2022-10-23T00:04:20.999Z,100047.30
2022-10-23T00:06:49.168Z,100049.02
2022-10-23T00:09:19.663Z,100047.54
2022-10-23T00:11:48.191Z,100052.69
2022-10-23T00:14:21.697Z,100056.48
2022-10-23T00:16:49.399Z,100055.61
2022-10-23T00:19:17.276Z,100058.27
2022-10-23T00:21:45.158Z,100062.54
2022-10-23T00:24:12.997Z,100060.46
2022-10-23T00:26:41.268Z,100060.95
2022-10-23T00:29:10.611Z,100068.13
2022-10-23T00:31:38.809Z,100066.02
2022-10-23T00:34:08.328Z,100068.41
2022-10-23T00:36:36.676Z,100065.93
2022-10-23T00:39:05.223Z,100063.83
2022-10-23T00:41:33.235Z,100062.04
2022-10-23T00:44:16.727Z,100068.48
2022-10-23T00:46:46.271Z,100068.84
2022-10-23T00:49:14.871Z,100073.52
2022-10-23T00:52:01.162Z,100075.13
2022-10-23T00:54:33.093Z,100074.14
2022-10-23T00:57:03.507Z,100070.33
2022-10-23T00:59:32.002Z,100079.91
2022-10-23T01:02:00.275Z,100077.12
2022-10-23T01:04:29.219Z,100079.02
2022-10-23T01:07:08.765Z,100082.57
2022-10-23T01:09:39.216Z,100081.71
2022-10-23T01:12:23.823Z,100084.73
2022-10-23T01:15:30.590Z,100085.33
2022-10-23T01:18:14.238Z,100087.39
2022-10-23T01:21:18.326Z,100089.48
2022-10-23T01:23:52.061Z,100090.95
2022-10-23T01:26:35.815Z,100089.65
2022-10-23T01:29:29.888Z,100088.52
2022-10-23T01:32:21.587Z,100090.27
2022-10-23T01:34:57.129Z,100093.95
2022-10-23T01:37:32.268Z,100097.02
2022-10-23T01:40:05.920Z,100090.25
2022-10-23T01:42:41.568Z,100093.21
2022-10-23T01:45:17.186Z,100092.33
2022-10-23T01:47:45.682Z,100096.80
2022-10-23T01:50:18.157Z,100099.45
2022-10-23T01:52:48.399Z,100092.06
2022-10-23T01:55:17.581Z,100091.75
2022-10-23T01:57:47.886Z,100091.14
2022-10-23T02:00:17.976Z,100088.38
2022-10-23T02:03:04.555Z,100091.06
2022-10-23T02:05:34.101Z,100087.81
2022-10-23T02:08:02.947Z,100090.65
2022-10-23T02:11:01.475Z,100091.21
2022-10-23T02:14:03.382Z,100096.55
2022-10-23T02:16:39.662Z,100099.15
2022-10-23T02:19:33.294Z,100097.48
2022-10-23T02:22:16.560Z,100095.26
2022-10-23T02:24:54.050Z,100091.38
2022-10-23T02:27:30.377Z,100088.98
2022-10-23T02:30:07.011Z,100086.09
2022-10-23T02:32:37.217Z,100090.41
2022-10-23T02:35:05.718Z,100094.55
2022-10-23T02:37:33.773Z,100097.55
2022-10-23T02:40:03.863Z,100094.14
2022-10-23T02:43:01.471Z,100096.84
2022-10-23T02:48:13.133Z,100104.34
2022-10-23T02:50:58.312Z,100102.06
2022-10-23T02:54:08.628Z,100099.59
2022-10-23T02:56:44.225Z,100099.20
2022-10-23T02:59:27.379Z,100094.42
2022-10-23T03:02:02.739Z,100095.59
2022-10-23T03:04:32.123Z,100100.53
2022-10-23T03:07:00.088Z,100102.73
2022-10-23T03:09:27.729Z,100104.75
2022-10-23T03:11:57.117Z,100102.55
2022-10-23T03:14:24.687Z,100105.76
2022-10-23T03:16:52.249Z,100108.05
2022-10-23T03:19:19.815Z,100110.34
2022-10-23T03:21:47.365Z,100108.70
2022-10-23T03:24:14.913Z,100106.44
2022-10-23T03:26:44.065Z,100108.58
2022-10-23T03:29:11.683Z,100116.70
2022-10-23T03:31:45.052Z,100120.09
2022-10-23T03:34:13.740Z,100127.60
2022-10-23T03:36:41.715Z,100132.16
2022-10-23T03:39:10.466Z,100133.45
2022-10-23T03:41:38.520Z,100132.77
2022-10-23T03:44:06.106Z,100134.52
2022-10-23T03:46:34.247Z,100133.54
2022-10-23T03:49:01.828Z,100131.98
2022-10-23T03:51:29.814Z,100131.79
2022-10-23T03:53:58.431Z,100136.38
2022-10-23T03:56:26.329Z,100137.27
2022-10-23T03:58:53.962Z,100135.73
2022-10-23T04:01:25.552Z,100143.20
2022-10-23T04:03:53.351Z,100151.86
2022-10-23T04:06:21.830Z,100157.13
2022-10-23T04:08:50.017Z,100162.85
2022-10-23T04:11:18.491Z,100159.61
2022-10-23T04:13:46.926Z,100157.71
2022-10-23T04:16:14.747Z,100157.98
2022-10-23T04:18:42.777Z,100154.65
2022-10-23T04:21:12.096Z,100155.00
2022-10-23T04:23:39.931Z,100147.77
2022-10-23T04:26:13.517Z,100147.48
2022-10-23T04:28:41.407Z,100149.35
2022-10-23T04:31:09.073Z,100149.25
2022-10-23T04:33:40.928Z,100150.48
2022-10-23T04:36:09.770Z,100151.29
2022-10-23T04:38:37.442Z,100154.25
2022-10-23T04:41:06.807Z,100153.66
2022-10-23T04:43:35.228Z,100155.30
2022-10-23T04:46:04.502Z,100153.36
2022-10-23T04:48:32.340Z,100159.98
2022-10-23T04:51:20.138Z,100163.90
2022-10-23T04:54:02.366Z,100162.50
2022-10-23T04:56:56.148Z,100166.02
2022-10-23T04:59:24.996Z,100163.23
2022-10-23T05:01:52.882Z,100159.37
2022-10-23T05:04:20.672Z,100164.46
2022-10-23T05:07:08.576Z,100161.91
2022-10-23T05:09:52.183Z,100157.14
2022-10-23T05:12:27.645Z,100158.91
2022-10-23T05:14:55.567Z,100158.50
2022-10-23T05:17:46.588Z,100157.71
2022-10-23T05:20:19.803Z,100161.52
2022-10-23T05:22:50.244Z,100159.36
2022-10-23T05:25:20.939Z,100161.55
2022-10-23T05:27:52.677Z,100165.74
2022-10-23T05:30:20.269Z,100164.39
2022-10-23T05:32:48.764Z,100167.34
2022-10-23T05:35:21.839Z,100163.29
2022-10-23T05:37:52.577Z,100165.95
2022-10-23T05:40:23.961Z,100159.55
2022-10-23T05:42:56.650Z,100163.27
2022-10-23T05:45:35.729Z,100168.34
2022-10-23T05:48:33.674Z,100168.34
2022-10-23T05:51:23.097Z,100168.06
2022-10-23T05:54:08.197Z,100163.71
2022-10-23T05:56:51.773Z,100157.19
2022-10-23T05:59:39.573Z,100154.36
2022-10-23T06:02:22.582Z,100154.08
2022-10-23T06:04:53.758Z,100156.79
2022-10-23T06:07:37.504Z,100163.55
2022-10-23T06:10:07.028Z,100156.21
2022-10-23T06:12:39.569Z,100156.17
2022-10-23T06:15:07.996Z,100154.17
2022-10-23T06:17:56.061Z,100157.49
2022-10-23T06:20:26.644Z,100158.58
2022-10-23T06:23:05.938Z,100161.27
2022-10-23T06:25:56.492Z,100160.79
2022-10-23T06:28:32.194Z,100166.44
2022-10-23T06:31:03.395Z,100170.72
2022-10-23T06:33:31.020Z,100172.05
2022-10-23T06:35:58.580Z,100175.33
2022-10-23T06:38:26.385Z,100181.58
2022-10-23T06:40:56.724Z,100181.31
2022-10-23T06:43:34.045Z,100176.38
2022-10-23T06:46:18.352Z,100167.23
2022-10-23T06:49:00.885Z,100162.55
2022-10-23T06:51:32.603Z,100171.55
2022-10-23T06:54:00.536Z,100174.99
2022-10-23T06:56:51.349Z,100174.23
2022-10-23T06:59:23.011Z,100175.86
2022-10-23T07:01:52.473Z,100177.63
2022-10-23T07:04:20.391Z,100179.56
2022-10-23T07:06:48.974Z,100185.04
2022-10-23T07:09:18.242Z,100188.70
2022-10-23T07:12:01.758Z,100190.48
2022-10-23T07:14:36.330Z,100182.02
2022-10-23T07:17:04.958Z,100180.20
2022-10-23T07:19:32.705Z,100181.73
2022-10-23T07:22:06.572Z,100180.63
2022-10-23T07:24:50.240Z,100184.27
2022-10-23T07:27:25.399Z,100184.59
2022-10-23T07:29:56.848Z,100180.07
2022-10-23T07:32:25.730Z,100177.35
2022-10-23T07:35:11.812Z,100180.40
2022-10-23T07:37:43.511Z,100175.82
2022-10-23T07:40:12.105Z,100182.42
2022-10-23T07:42:44.319Z,100188.96
2022-10-23T07:45:12.746Z,100188.47
2022-10-23T07:47:43.617Z,100178.70
2022-10-23T07:50:12.817Z,100181.15
2022-10-23T07:52:40.651Z,100186.30
2022-10-23T07:55:13.644Z,100183.59
2022-10-23T07:57:47.775Z,100186.72
2022-10-23T08:02:56.993Z,100184.16
2022-10-23T08:05:25.876Z,100187.13
2022-10-23T08:07:57.959Z,100191.54
2022-10-23T08:10:26.023Z,100187.10
2022-10-23T08:12:53.677Z,100184.45
2022-10-23T08:15:25.669Z,100181.79
2022-10-23T08:17:57.794Z,100188.13
2022-10-23T08:20:40.825Z,100196.04
2022-10-23T08:23:12.217Z,100199.92
2022-10-23T08:25:40.967Z,100201.92
2022-10-23T08:28:09.881Z,100195.56
2022-10-23T08:30:44.291Z,100193.35
2022-10-23T08:33:12.177Z,100185.31
2022-10-23T08:35:40.009Z,100193.35
2022-10-23T08:38:08.121Z,100190.28
2022-10-23T08:40:44.840Z,100193.73
2022-10-23T08:43:41.908Z,100197.88
2022-10-23T08:46:42.579Z,100199.42
2022-10-23T08:49:45.546Z,100198.66
2022-10-23T08:52:35.217Z,100201.17
2022-10-23T08:55:14.983Z,100197.84
2022-10-23T08:57:55.436Z,100194.54
2022-10-23T09:00:23.153Z,100197.31
2022-10-23T09:02:53.737Z,100202.00
2022-10-23T09:05:50.485Z,100204.14
2022-10-23T09:08:41.252Z,100203.79
2022-10-23T09:11:28.700Z,100209.11
2022-10-23T09:14:15.611Z,100214.84
2022-10-23T09:16:55.864Z,100216.36
2022-10-23T09:19:28.079Z,100215.59
2022-10-23T09:21:56.526Z,100219.85
2022-10-23T09:24:26.346Z,100228.55
2022-10-23T09:26:54.750Z,100229.70
2022-10-23T09:29:27.857Z,100229.86
2022-10-23T09:32:01.004Z,100235.36
2022-10-23T09:34:31.137Z,100231.55
2022-10-23T09:37:01.625Z,100232.52
2022-10-23T09:39:35.092Z,100234.75
2022-10-23T09:42:13.683Z,100234.71
2022-10-23T09:44:50.451Z,100240.02
2022-10-23T09:47:21.683Z,100233.48
2022-10-23T09:49:52.632Z,100231.66
2022-10-23T09:52:29.557Z,100234.14
2022-10-23T09:55:02.521Z,100240.23
2022-10-23T09:57:42.737Z,100240.09
2022-10-23T10:00:27.030Z,100242.34
2022-10-23T10:03:05.308Z,100243.98
2022-10-23T10:05:57.520Z,100237.92
2022-10-23T10:08:42.173Z,100235.16
2022-10-23T10:11:29.160Z,100236.05
2022-10-23T10:14:04.802Z,100226.57
2022-10-23T10:19:22.739Z,100212.46
2022-10-23T10:22:16.616Z,100216.27
2022-10-23T10:25:09.462Z,100221.81
2022-10-23T10:28:00.092Z,100224.66
2022-10-23T10:30:41.254Z,100227.89
2022-10-23T10:33:13.410Z,100226.52
2022-10-23T10:36:00.452Z,100229.02
2022-10-23T10:38:41.517Z,100227.12
2022-10-23T10:41:32.217Z,100228.91
2022-10-23T10:44:15.802Z,100225.66
2022-10-23T10:46:52.597Z,100228.23
2022-10-23T10:49:40.448Z,100223.66
2022-10-23T10:52:40.079Z,100224.30
2022-10-23T10:55:10.949Z,100221.78
2022-10-23T10:57:44.519Z,100223.92
2022-10-23T11:00:22.661Z,100228.85
2022-10-23T11:02:57.683Z,100227.73
2022-10-23T11:05:37.232Z,100222.23
2022-10-23T11:08:44.387Z,100224.30
2022-10-23T11:11:27.118Z,100225.34
2022-10-23T11:13:55.762Z,100229.08
2022-10-23T11:16:32.052Z,100226.00
2022-10-23T11:19:17.383Z,100227.16
2022-10-23T11:21:54.027Z,100234.00
2022-10-23T11:24:45.386Z,100232.19
2022-10-23T11:27:26.938Z,100231.70
2022-10-23T11:30:14.809Z,100230.47
2022-10-23T11:33:00.946Z,100232.85
2022-10-23T11:35:39.129Z,100231.15
2022-10-23T11:38:16.257Z,100231.16
2022-10-23T11:43:51.034Z,100228.60
2022-10-23T11:46:25.436Z,100225.48
2022-10-23T11:48:55.468Z,100226.49
2022-10-23T11:51:41.838Z,100227.48
2022-10-23T11:54:13.612Z,100227.92
2022-10-23T11:57:13.269Z,100222.08
2022-10-23T11:59:57.590Z,100219.23
2022-10-23T12:02:43.341Z,100225.46
2022-10-23T12:05:45.650Z,100229.82
2022-10-23T12:08:25.385Z,100223.95
2022-10-23T12:10:55.219Z,100221.53
2022-10-23T12:13:31.369Z,100219.87
2022-10-23T12:16:00.971Z,100217.00
2022-10-23T12:18:29.086Z,100213.79
2022-10-23T12:21:01.844Z,100210.92
2022-10-23T12:24:01.541Z,100213.73
2022-10-23T12:27:01.676Z,100214.91
2022-10-23T12:29:46.853Z,100215.50
2022-10-23T12:32:27.182Z,100217.56
2022-10-23T12:35:10.864Z,100211.83
2022-10-23T12:37:44.738Z,100206.66
2022-10-23T12:40:12.591Z,100205.35
2022-10-23T12:42:41.685Z,100204.83
2022-10-23T12:45:20.702Z,100209.93
2022-10-23T12:47:49.664Z,100213.59
2022-10-23T12:50:22.459Z,100213.35
2022-10-23T12:53:01.032Z,100217.18
2022-10-23T12:55:53.199Z,100215.83
2022-10-23T12:58:27.268Z,100210.94
2022-10-23T13:00:59.566Z,100214.50
2022-10-23T13:03:30.161Z,100218.45
2022-10-23T13:06:02.485Z,100217.62
2022-10-23T13:08:49.297Z,100216.46
2022-10-23T13:11:31.279Z,100214.08
2022-10-23T13:14:01.964Z,100216.92
2022-10-23T13:16:29.615Z,100220.64
2022-10-23T13:18:57.360Z,100220.81
2022-10-23T13:21:30.154Z,100217.79
2022-10-23T13:23:57.975Z,100216.94
2022-10-23T13:26:47.244Z,100216.77
2022-10-23T13:29:36.181Z,100213.79
2022-10-23T13:32:29.816Z,100210.54
2022-10-23T13:35:20.737Z,100208.16
2022-10-23T13:37:51.135Z,100210.41
2022-10-23T13:40:24.926Z,100213.95
2022-10-23T13:42:54.884Z,100213.06
2022-10-23T13:45:26.406Z,100214.98
2022-10-23T13:47:54.066Z,100215.92
2022-10-23T13:50:21.761Z,100218.61
2022-10-23T13:52:49.425Z,100225.09
2022-10-23T13:55:23.892Z,100221.16
2022-10-23T13:57:51.950Z,100220.64
2022-10-23T14:00:19.833Z,100212.63
2022-10-23T14:02:47.566Z,100215.37
2022-10-23T14:05:15.345Z,100215.48
2022-10-23T14:07:43.372Z,100216.93
2022-10-23T14:10:11.278Z,100213.85
2022-10-23T14:12:43.852Z,100209.71
2022-10-23T14:15:12.279Z,100211.73
2022-10-23T14:17:40.016Z,100210.82
2022-10-23T14:20:08.783Z,100211.30
2022-10-23T14:22:36.821Z,100215.20
2022-10-23T14:25:05.420Z,100217.30
2022-10-23T14:27:33.049Z,100214.94
2022-10-23T14:30:00.745Z,100214.50
2022-10-23T14:32:30.337Z,100207.70
2022-10-23T14:34:57.965Z,100209.91
2022-10-23T14:37:25.626Z,100209.86
2022-10-23T14:39:53.471Z,100208.48
2022-10-23T14:42:21.158Z,100210.66
2022-10-23T14:44:50.044Z,100211.36
2022-10-23T14:47:23.705Z,100210.27
2022-10-23T14:49:52.883Z,100207.88
2022-10-23T14:52:20.523Z,100207.64
2022-10-23T14:54:48.243Z,100204.63
2022-10-23T14:57:17.913Z,100195.81
2022-10-23T14:59:45.598Z,100195.91
2022-10-23T15:02:13.593Z,100194.50
2022-10-23T15:04:41.548Z,100191.34
2022-10-23T15:07:09.438Z,100189.05
2022-10-23T15:09:37.476Z,100186.76
2022-10-23T15:12:06.681Z,100183.33
2022-10-23T15:14:34.697Z,100181.17
2022-10-23T15:17:02.934Z,100182.79
2022-10-23T15:19:30.920Z,100187.38
2022-10-23T15:21:58.595Z,100189.90
2022-10-23T15:24:26.716Z,100193.91
2022-10-23T15:26:54.429Z,100196.27
2022-10-23T15:29:22.982Z,100192.30
2022-10-23T15:31:57.029Z,100195.59
2022-10-23T15:34:27.844Z,100195.81
2022-10-23T15:36:57.125Z,100190.45
2022-10-23T15:39:28.203Z,100184.94
2022-10-23T15:41:56.857Z,100179.63
2022-10-23T15:44:27.580Z,100179.42
2022-10-23T15:46:57.021Z,100182.00
2022-10-23T15:49:26.292Z,100181.92
2022-10-23T15:51:54.261Z,100182.89
2022-10-23T15:54:22.792Z,100184.10
2022-10-23T15:56:52.545Z,100188.38
2022-10-23T15:59:22.637Z,100190.64
2022-10-23T16:01:50.750Z,100189.94
2022-10-23T16:04:19.024Z,100190.63
2022-10-23T16:06:47.017Z,100194.48
2022-10-23T16:09:15.472Z,100194.04
2022-10-23T16:11:44.008Z,100194.31
2022-10-23T16:14:14.451Z,100192.40
2022-10-23T16:16:42.855Z,100193.27
2022-10-23T16:19:11.083Z,100199.23
2022-10-23T16:21:38.784Z,100203.25
2022-10-23T16:24:07.736Z,100207.90
2022-10-23T16:26:36.610Z,100215.65
2022-10-23T16:29:07.182Z,100214.27
2022-10-23T16:31:35.649Z,100210.55
2022-10-23T16:34:05.328Z,100208.58
2022-10-23T16:36:34.418Z,100213.58
2022-10-23T16:39:18.281Z,100214.85
2022-10-23T16:42:00.908Z,100212.98
2022-10-23T16:44:37.285Z,100208.27
2022-10-23T16:47:06.874Z,100206.64
2022-10-23T16:49:35.093Z,100205.48
2022-10-23T16:52:02.819Z,100210.26
2022-10-23T16:54:30.463Z,100209.70
2022-10-23T16:56:58.640Z,100209.27
2022-10-23T16:59:26.322Z,100202.55
2022-10-23T17:01:54.300Z,100200.13
2022-10-23T17:04:22.062Z,100197.39
2022-10-23T17:06:49.714Z,100202.30
2022-10-23T17:09:19.303Z,100200.80
2022-10-23T17:11:47.906Z,100200.75
2022-10-23T17:14:19.243Z,100203.61
2022-10-23T17:16:51.894Z,100204.60
2022-10-23T17:19:43.789Z,100207.20
2022-10-23T17:22:13.194Z,100211.33
2022-10-23T17:24:42.098Z,100212.15
2022-10-23T17:27:09.787Z,100210.02
2022-10-23T17:29:38.269Z,100214.47
2022-10-23T17:32:06.215Z,100215.74
2022-10-23T17:34:33.984Z,100214.89
2022-10-23T17:37:01.626Z,100213.91
2022-10-23T17:39:29.502Z,100211.27
2022-10-23T17:41:57.404Z,100215.79
2022-10-23T17:44:25.126Z,100217.27
2022-10-23T17:46:54.258Z,100221.83
2022-10-23T17:49:23.319Z,100225.58
2022-10-23T17:51:54.059Z,100221.88
2022-10-23T17:54:22.855Z,100218.71
2022-10-23T17:56:50.549Z,100220.71
2022-10-23T17:59:19.458Z,100218.59
2022-10-23T18:01:48.399Z,100217.58
2022-10-23T18:04:18.795Z,100222.27
2022-10-23T18:06:50.055Z,100220.55
2022-10-23T18:09:18.548Z,100222.11
2022-10-23T18:11:48.138Z,100223.48
2022-10-23T18:14:18.183Z,100215.96
2022-10-23T18:16:46.676Z,100213.02
2022-10-23T18:19:15.600Z,100215.00
2022-10-23T18:21:43.216Z,100213.86
2022-10-23T18:24:11.335Z,100212.06
2022-10-23T18:26:41.531Z,100209.23
2022-10-23T18:29:11.840Z,100214.11
2022-10-23T18:31:39.960Z,100211.14
2022-10-23T18:34:14.839Z,100210.92
2022-10-23T18:36:42.419Z,100207.23
2022-10-23T18:39:14.102Z,100207.16
2022-10-23T18:41:43.438Z,100208.27
2022-10-23T18:44:17.249Z,100209.16
2022-10-23T18:46:46.693Z,100211.94
2022-10-23T18:49:16.825Z,100218.85
2022-10-23T18:51:44.952Z,100217.10
2022-10-23T18:54:15.405Z,100215.41
2022-10-23T18:56:43.077Z,100216.70
2022-10-23T18:59:17.035Z,100215.05
2022-10-23T19:01:45.255Z,100209.84
2022-10-23T19:04:15.641Z,100213.45
2022-10-23T19:06:44.582Z,100212.80
2022-10-23T19:09:14.080Z,100212.61
2022-10-23T19:11:42.911Z,100210.70
2022-10-23T19:14:11.089Z,100207.94
2022-10-23T19:17:04.941Z,100209.61
2022-10-23T19:19:39.911Z,100204.05
2022-10-23T19:22:08.633Z,100203.95
2022-10-23T19:24:40.651Z,100206.25
2022-10-23T19:27:08.706Z,100201.77
2022-10-23T19:29:40.693Z,100196.80
2022-10-23T19:32:08.666Z,100193.17
2022-10-23T19:34:36.638Z,100192.37
2022-10-23T19:37:04.304Z,100193.31
2022-10-23T19:39:32.017Z,100192.46
2022-10-23T19:42:00.340Z,100186.56
2022-10-23T19:44:27.915Z,100171.14
2022-10-23T19:46:55.425Z,100172.94
2022-10-23T19:49:23.793Z,100174.95
2022-10-23T19:51:51.722Z,100177.54
2022-10-23T19:54:21.061Z,100174.88
2022-10-23T19:56:49.369Z,100172.11
2022-10-23T19:59:17.024Z,100162.40
2022-10-23T20:01:47.898Z,100165.64
2022-10-23T20:04:18.328Z,100161.95
2022-10-23T20:06:46.995Z,100156.27
2022-10-23T20:09:14.627Z,100154.69
2022-10-23T20:11:43.534Z,100155.70
2022-10-23T20:14:12.397Z,100154.10
2022-10-23T20:16:39.973Z,100152.91
2022-10-23T20:19:09.895Z,100154.56
2022-10-23T20:21:40.327Z,100156.20
2022-10-23T20:24:09.054Z,100156.77
2022-10-23T20:26:40.576Z,100151.27
2022-10-23T20:29:08.516Z,100150.41
2022-10-23T20:31:36.464Z,100148.98
2022-10-23T20:34:03.991Z,100147.02
2022-10-23T20:36:38.568Z,100143.73
2022-10-23T20:39:11.517Z,100140.63
2022-10-23T20:41:40.688Z,100139.02
2022-10-23T20:44:12.388Z,100135.43
2022-10-23T20:46:40.437Z,100135.04
2022-10-23T20:49:12.270Z,100141.80
2022-10-23T20:51:40.231Z,100150.10
2022-10-23T20:54:07.827Z,100147.80
2022-10-23T20:56:38.621Z,100152.43
2022-10-23T20:59:10.378Z,100148.86
2022-10-23T21:01:44.066Z,100147.36
2022-10-23T21:04:13.839Z,100147.16
2022-10-23T21:06:57.724Z,100143.77
2022-10-23T21:09:31.058Z,100149.57
2022-10-23T21:11:58.621Z,100151.04
2022-10-23T21:14:27.215Z,100148.69
2022-10-23T21:16:54.729Z,100149.01
2022-10-23T21:19:22.418Z,100147.95
2022-10-23T21:21:50.513Z,100150.38
2022-10-23T21:24:18.197Z,100154.77
2022-10-23T21:26:45.903Z,100149.63
2022-10-23T21:29:19.099Z,100146.52
2022-10-23T21:31:52.959Z,100144.28
2022-10-23T21:34:20.799Z,100147.64
2022-10-23T21:37:11.389Z,100148.29
2022-10-23T21:39:36.082Z,100145.52
2022-10-23T21:42:03.867Z,100144.66
2022-10-23T21:44:31.402Z,100141.20
2022-10-23T21:46:58.953Z,100140.00
2022-10-23T21:49:26.591Z,100134.27
2022-10-23T21:51:55.068Z,100134.85
2022-10-23T21:54:23.148Z,100130.46
2022-10-23T21:56:53.751Z,100134.98
2022-10-23T21:59:25.780Z,100140.42
2022-10-23T22:01:55.355Z,100142.38
2022-10-23T22:04:23.110Z,100138.98
2022-10-23T22:06:50.689Z,100136.98
2022-10-23T22:09:20.334Z,100135.33
2022-10-23T22:11:50.092Z,100136.11
2022-10-23T22:14:18.678Z,100124.55
2022-10-23T22:16:47.294Z,100117.06
2022-10-23T22:19:17.205Z,100109.66
2022-10-23T22:21:45.033Z,100112.50
2022-10-23T22:24:12.740Z,100113.95
2022-10-23T22:26:43.606Z,100120.63
2022-10-23T22:29:14.300Z,100124.17
2022-10-23T22:31:45.634Z,100121.15
2022-10-23T22:34:47.989Z,100116.73
2022-10-23T22:37:13.430Z,100114.70
2022-10-23T22:39:41.459Z,100116.32
2022-10-23T22:42:09.099Z,100115.33
2022-10-23T22:44:36.650Z,100111.83
2022-10-23T22:47:04.549Z,100115.24
2022-10-23T22:49:32.322Z,100114.51
2022-10-23T22:52:00.045Z,100116.66
2022-10-23T22:54:27.720Z,100119.92
2022-10-23T22:56:55.271Z,100118.09
2022-10-23T22:59:22.836Z,100122.99
2022-10-23T23:01:51.113Z,100125.70
2022-10-23T23:07:08.484Z,100139.17
2022-10-23T23:09:41.568Z,100135.02
2022-10-23T23:12:12.172Z,100132.54
2022-10-23T23:14:40.455Z,100124.46
2022-10-23T23:17:08.629Z,100121.25
2022-10-23T23:19:36.598Z,100109.87
2022-10-23T23:22:04.685Z,100107.51
2022-10-23T23:24:32.598Z,100107.16
2022-10-23T23:27:00.193Z,100109.21
2022-10-23T23:29:29.446Z,100106.67
2022-10-23T23:31:57.157Z,100110.55
2022-10-23T23:34:24.720Z,100105.14
2022-10-23T23:36:52.281Z,100106.80
2022-10-23T23:39:19.837Z,100113.31
2022-10-23T23:41:47.528Z,100116.04
2022-10-23T23:44:15.097Z,100112.79
2022-10-23T23:46:42.922Z,100108.98
2022-10-23T23:49:10.523Z,100104.90
2022-10-23T23:51:38.228Z,100104.77
2022-10-23T23:54:05.798Z,100098.13
2022-10-23T23:56:33.402Z,100101.85
2022-10-23T23:59:01.458Z,100100.48
